createdAt,value
2023-12-02T00:01:53.113Z,-1.80
2023-12-02T00:04:19.361Z,-1.80
2023-12-02T00:06:45.271Z,-1.80
2023-12-02T00:09:11.470Z,-1.80
2023-12-02T00:11:37.412Z,-1.80
2023-12-02T00:14:04.473Z,-1.80
2023-12-02T00:16:30.419Z,-1.76
2023-12-02T00:18:56.430Z,-1.70
2023-12-02T00:21:23.118Z,-1.72
2023-12-02T00:23:49.029Z,-1.80
2023-12-02T00:26:14.932Z,-1.80
2023-12-02T00:28:40.822Z,-1.80
2023-12-02T00:31:07.339Z,-1.80
2023-12-02T00:33:33.300Z,-1.80
2023-12-02T00:35:59.242Z,-1.80
2023-12-02T00:38:25.168Z,-1.80
2023-12-02T00:40:51.347Z,-1.80
2023-12-02T00:43:17.222Z,-1.80
2023-12-02T00:45:43.147Z,-1.80
2023-12-02T00:48:09.331Z,-1.80
2023-12-02T00:50:35.238Z,-1.80
2023-12-02T00:53:01.095Z,-1.86
2023-12-02T00:55:27.296Z,-1.90
2023-12-02T00:57:53.216Z,-1.90
2023-12-02T01:00:19.290Z,-1.90
2023-12-02T01:02:45.521Z,-1.90
2023-12-02T01:05:11.514Z,-1.90
2023-12-02T01:07:37.412Z,-1.90
2023-12-02T01:10:04.176Z,-2.00
2023-12-02T01:12:30.121Z,-2.00
2023-12-02T01:14:56.478Z,-2.00
2023-12-02T01:17:22.496Z,-2.00
2023-12-02T01:19:48.480Z,-2.02
2023-12-02T01:22:14.418Z,-2.04
2023-12-02T01:24:40.436Z,-2.10
2023-12-02T01:27:13.606Z,-2.08
2023-12-02T01:29:39.523Z,-2.08
2023-12-02T01:32:05.886Z,-2.08
2023-12-02T01:34:32.186Z,-2.10
2023-12-02T01:36:58.321Z,-2.10
2023-12-02T01:39:24.192Z,-2.10
2023-12-02T01:41:50.087Z,-2.10
2023-12-02T01:44:16.106Z,-2.10
2023-12-02T01:46:41.989Z,-2.10
2023-12-02T01:49:10.481Z,-2.14
2023-12-02T01:51:37.046Z,-2.20
2023-12-02T01:54:04.156Z,-2.20
2023-12-02T01:56:30.422Z,-2.20
2023-12-02T01:58:56.882Z,-2.28
2023-12-02T02:01:22.783Z,-2.30
2023-12-02T02:03:50.306Z,-2.30
2023-12-02T02:06:16.452Z,-2.32
2023-12-02T02:08:42.371Z,-2.40
2023-12-02T02:11:08.315Z,-2.40
2023-12-02T02:16:00.226Z,-2.40
2023-12-02T02:18:26.331Z,-2.40
2023-12-02T02:20:59.586Z,-2.40
2023-12-02T02:23:25.535Z,-2.40
2023-12-02T02:25:53.052Z,-2.40
2023-12-02T02:28:28.500Z,-2.40
2023-12-02T02:30:55.309Z,-2.40
2023-12-02T02:33:21.747Z,-2.40
2023-12-02T02:35:50.745Z,-2.40
2023-12-02T02:38:16.686Z,-2.40
2023-12-02T02:40:42.612Z,-2.40
2023-12-02T02:43:08.845Z,-2.40
2023-12-02T02:45:34.771Z,-2.40
2023-12-02T02:48:00.831Z,-2.40
2023-12-02T02:50:27.069Z,-2.40
2023-12-02T02:52:52.931Z,-2.40
2023-12-02T02:55:18.795Z,-2.40
2023-12-02T02:57:44.672Z,-2.30
2023-12-02T03:00:11.879Z,-2.30
2023-12-02T03:02:38.190Z,-2.30
2023-12-02T03:05:06.111Z,-2.38
2023-12-02T03:07:32.563Z,-2.38
2023-12-02T03:09:58.901Z,-2.38
2023-12-02T03:12:25.845Z,-2.40
2023-12-02T03:14:53.821Z,-2.40
2023-12-02T03:17:20.047Z,-2.40
2023-12-02T03:19:48.267Z,-2.32
2023-12-02T03:22:14.793Z,-2.30
2023-12-02T03:24:41.062Z,-2.30
2023-12-02T03:27:07.186Z,-2.30
2023-12-02T03:29:33.134Z,-2.30
2023-12-02T03:32:01.413Z,-2.30
2023-12-02T03:34:27.329Z,-2.30
2023-12-02T03:36:53.240Z,-2.26
2023-12-02T03:39:19.399Z,-2.24
2023-12-02T03:41:45.331Z,-2.20
2023-12-02T03:44:11.268Z,-2.20
2023-12-02T03:46:37.881Z,-2.22
2023-12-02T03:49:04.599Z,-2.24
2023-12-02T03:51:30.930Z,-2.26
2023-12-02T03:53:57.210Z,-2.20
2023-12-02T03:56:24.169Z,-2.20
2023-12-02T03:58:51.206Z,-2.20
2023-12-02T04:01:21.250Z,-2.20
2023-12-02T04:03:47.701Z,-2.20
2023-12-02T04:06:14.052Z,-2.20
2023-12-02T04:08:40.441Z,-2.14
2023-12-02T04:11:07.611Z,-2.10
2023-12-02T04:13:33.909Z,-2.10
2023-12-02T04:15:59.917Z,-2.10
2023-12-02T04:18:25.961Z,-2.10
2023-12-02T04:20:52.007Z,-2.10
2023-12-02T04:23:18.713Z,-2.10
2023-12-02T04:25:44.953Z,-2.10
2023-12-02T04:28:11.324Z,-2.10
2023-12-02T04:30:40.624Z,-2.10
2023-12-02T04:33:06.986Z,-2.20
2023-12-02T04:35:34.537Z,-2.20
2023-12-02T04:38:00.400Z,-2.30
2023-12-02T04:40:26.268Z,-2.30
2023-12-02T04:42:52.121Z,-2.30
2023-12-02T04:45:18.004Z,-2.30
2023-12-02T04:47:43.935Z,-2.30
2023-12-02T04:50:10.025Z,-2.30
2023-12-02T04:52:35.945Z,-2.30
2023-12-02T04:55:01.866Z,-2.40
2023-12-02T04:57:27.874Z,-2.40
2023-12-02T04:59:53.814Z,-2.50
2023-12-02T05:02:20.888Z,-2.50
2023-12-02T05:04:47.946Z,-2.50
2023-12-02T05:07:14.702Z,-2.50
2023-12-02T05:09:40.716Z,-2.60
2023-12-02T05:12:07.802Z,-2.60
2023-12-02T05:17:00.151Z,-2.70
2023-12-02T05:19:26.134Z,-2.70
2023-12-02T05:21:52.335Z,-2.70
2023-12-02T05:24:19.487Z,-2.70
2023-12-02T05:26:46.116Z,-2.70
2023-12-02T05:29:12.463Z,-2.70
2023-12-02T05:31:39.371Z,-2.70
2023-12-02T05:34:05.605Z,-2.70
2023-12-02T05:36:31.905Z,-2.70
2023-12-02T05:38:58.040Z,-2.70
2023-12-02T05:41:24.460Z,-2.74
2023-12-02T05:43:50.396Z,-2.80
2023-12-02T05:46:17.858Z,-2.80
2023-12-02T05:48:45.172Z,-2.80
2023-12-02T05:51:13.279Z,-2.80
2023-12-02T05:53:40.455Z,-2.90
2023-12-02T05:56:08.627Z,-2.90
2023-12-02T06:01:00.405Z,-2.90
2023-12-02T06:03:26.412Z,-2.90
2023-12-02T06:05:52.306Z,-3.00
2023-12-02T06:08:18.451Z,-3.00
2023-12-02T06:10:44.493Z,-3.00
2023-12-02T06:13:10.442Z,-2.92
2023-12-02T06:15:36.379Z,-2.90
2023-12-02T06:18:03.729Z,-2.90
2023-12-02T06:20:29.684Z,-2.80
2023-12-02T06:22:55.619Z,-2.80
2023-12-02T06:25:21.529Z,-2.80
2023-12-02T06:27:47.418Z,-2.80
2023-12-02T06:30:18.737Z,-2.80
2023-12-02T06:32:45.001Z,-2.72
2023-12-02T06:35:11.190Z,-2.70
2023-12-02T06:37:37.152Z,-2.70
2023-12-02T06:40:04.102Z,-2.70
2023-12-02T06:42:30.079Z,-2.70
2023-12-02T06:44:56.154Z,-2.76
2023-12-02T06:47:22.037Z,-2.80
2023-12-02T06:49:48.062Z,-2.80
2023-12-02T06:52:14.010Z,-2.90
2023-12-02T06:54:39.909Z,-3.00
2023-12-02T06:57:06.912Z,-3.00
2023-12-02T06:59:33.331Z,-3.00
2023-12-02T07:01:59.848Z,-3.00
2023-12-02T07:04:25.877Z,-3.04
2023-12-02T07:06:51.865Z,-3.10
2023-12-02T07:09:17.791Z,-3.10
2023-12-02T07:11:43.914Z,-3.10
2023-12-02T07:14:09.957Z,-3.10
2023-12-02T07:16:35.850Z,-3.10
2023-12-02T07:19:02.349Z,-3.10
2023-12-02T07:21:28.323Z,-3.10
2023-12-02T07:23:54.254Z,-3.00
2023-12-02T07:26:20.136Z,-3.00
2023-12-02T07:28:46.216Z,-3.00
2023-12-02T07:31:16.813Z,-2.90
2023-12-02T07:33:43.266Z,-2.88
2023-12-02T07:36:10.300Z,-2.78
2023-12-02T07:38:36.384Z,-2.70
2023-12-02T07:41:02.649Z,-2.70
2023-12-02T07:43:28.795Z,-2.60
2023-12-02T07:45:54.814Z,-2.60
2023-12-02T07:48:20.984Z,-2.60
2023-12-02T07:50:46.928Z,-2.60
2023-12-02T07:53:12.830Z,-2.60
2023-12-02T07:55:38.755Z,-2.68
2023-12-02T07:58:04.714Z,-2.70
2023-12-02T08:00:30.950Z,-2.70
2023-12-02T08:02:57.451Z,-2.68
2023-12-02T08:07:52.489Z,-2.60
2023-12-02T08:10:18.622Z,-2.60
2023-12-02T08:12:44.553Z,-2.50
2023-12-02T08:15:10.503Z,-2.50
2023-12-02T08:17:36.510Z,-2.40
2023-12-02T08:20:06.051Z,-2.40
2023-12-02T08:22:32.635Z,-2.30
2023-12-02T08:25:01.251Z,-2.30
2023-12-02T08:27:27.287Z,-2.30
2023-12-02T08:29:53.254Z,-2.28
2023-12-02T08:32:19.114Z,-2.20
2023-12-02T08:34:45.713Z,-2.12
2023-12-02T08:37:11.684Z,-2.10
2023-12-02T08:39:37.703Z,-2.00
2023-12-02T08:42:04.250Z,-1.90
2023-12-02T08:44:30.131Z,-1.90
2023-12-02T08:46:58.988Z,-1.90
2023-12-02T08:49:25.012Z,-1.90
2023-12-02T08:51:51.000Z,-1.90
2023-12-02T08:54:16.889Z,-1.90
2023-12-02T08:56:43.451Z,-1.88
2023-12-02T08:59:09.815Z,-1.80
2023-12-02T09:01:36.070Z,-1.76
2023-12-02T09:04:02.134Z,-1.70
2023-12-02T09:06:28.578Z,-1.70
2023-12-02T09:08:55.193Z,-1.70
2023-12-02T09:11:21.297Z,-1.62
2023-12-02T09:13:48.065Z,-1.60
2023-12-02T09:16:28.845Z,-1.50
2023-12-02T09:18:55.949Z,-1.50
2023-12-02T09:24:05.458Z,-1.40
2023-12-02T09:26:35.334Z,-1.40
2023-12-02T09:29:01.343Z,-1.40
2023-12-02T09:31:28.096Z,-1.40
2023-12-02T09:34:03.399Z,-1.40
2023-12-02T09:36:35.780Z,-1.30
2023-12-02T09:39:10.651Z,-1.20
2023-12-02T09:42:35.800Z,-1.20
2023-12-02T09:45:22.120Z,-1.10
2023-12-02T09:48:10.555Z,-1.10
2023-12-02T09:51:03.938Z,-1.10
2023-12-02T09:53:35.437Z,-1.10
2023-12-02T09:56:19.030Z,-1.10
2023-12-02T09:58:47.606Z,-1.20
2023-12-02T10:04:19.284Z,-1.10
2023-12-02T10:06:54.082Z,-1.04
2023-12-02T10:09:35.710Z,-1.00
2023-12-02T10:12:30.934Z,-1.00
2023-12-02T10:15:05.982Z,-0.92
2023-12-02T10:17:35.516Z,-0.90
2023-12-02T10:20:09.949Z,-0.90
2023-12-02T10:22:45.752Z,-0.90
2023-12-02T10:25:33.836Z,-0.80
2023-12-02T10:28:23.757Z,-0.80
2023-12-02T10:30:59.806Z,-0.84
2023-12-02T10:33:35.455Z,-0.82
2023-12-02T10:36:07.897Z,-0.80
2023-12-02T10:41:17.374Z,-0.66
2023-12-02T10:43:45.435Z,-0.60
2023-12-02T10:46:12.643Z,-0.56
2023-12-02T10:48:43.097Z,-0.50
2023-12-02T10:51:10.431Z,-0.50
2023-12-02T10:53:38.179Z,-0.50
2023-12-02T10:56:14.026Z,-0.50
2023-12-02T10:58:43.517Z,-0.60
2023-12-02T11:01:11.058Z,-0.70
2023-12-02T11:04:02.798Z,-0.70
2023-12-02T11:09:12.599Z,-0.80
2023-12-02T11:11:57.408Z,-0.80
2023-12-02T11:14:26.578Z,-0.80
2023-12-02T11:17:17.205Z,-0.80
2023-12-02T11:20:22.742Z,-0.76
2023-12-02T11:23:20.950Z,-0.80
2023-12-02T11:26:14.281Z,-0.70
2023-12-02T11:29:18.505Z,-0.72
2023-12-02T11:32:35.877Z,-0.80
2023-12-02T11:35:14.250Z,-0.82
2023-12-02T11:38:06.701Z,-0.90
2023-12-02T11:43:35.973Z,-0.90
2023-12-02T11:46:15.184Z,-0.98
2023-12-02T11:48:59.570Z,-1.00
2023-12-02T11:54:26.387Z,-1.10
2023-12-02T11:57:13.988Z,-1.10
2023-12-02T12:00:04.299Z,-1.10
2023-12-02T12:05:14.984Z,-1.10
2023-12-02T12:08:01.993Z,-1.10
2023-12-02T12:10:36.051Z,-1.20
2023-12-02T12:13:03.934Z,-1.20
2023-12-02T12:15:31.416Z,-1.20
2023-12-02T12:17:57.562Z,-1.20
2023-12-02T12:20:29.903Z,-1.20
2023-12-02T12:22:56.062Z,-1.20
2023-12-02T12:25:25.651Z,-1.30
2023-12-02T12:27:51.910Z,-1.40
2023-12-02T12:30:17.955Z,-1.44
2023-12-02T12:32:43.990Z,-1.50
2023-12-02T12:35:17.653Z,-1.50
2023-12-02T12:37:44.910Z,-1.50
2023-12-02T12:40:13.095Z,-1.50
2023-12-02T12:42:49.487Z,-1.50
2023-12-02T12:45:16.363Z,-1.60
2023-12-02T12:47:45.702Z,-1.60
2023-12-02T12:50:13.070Z,-1.62
2023-12-02T12:52:52.096Z,-1.70
2023-12-02T12:55:25.204Z,-1.70
2023-12-02T12:58:22.325Z,-1.70
2023-12-02T13:00:50.730Z,-1.70
2023-12-02T13:03:36.102Z,-1.78
2023-12-02T13:06:25.195Z,-1.76
2023-12-02T13:09:05.790Z,-1.70
2023-12-02T13:14:07.841Z,-1.70
2023-12-02T13:16:34.861Z,-1.70
2023-12-02T13:19:02.365Z,-1.70
2023-12-02T13:21:30.145Z,-1.70
2023-12-02T13:24:01.985Z,-1.76
2023-12-02T13:26:36.496Z,-1.70
2023-12-02T13:29:04.816Z,-1.70
2023-12-02T13:34:30.820Z,-1.70
2023-12-02T13:36:58.060Z,-1.70
2023-12-02T13:39:35.054Z,-1.70
2023-12-02T13:42:13.425Z,-1.70
2023-12-02T13:44:54.080Z,-1.70
2023-12-02T13:47:36.489Z,-1.70
2023-12-02T13:50:02.812Z,-1.76
2023-12-02T13:52:35.984Z,-1.80
2023-12-02T13:55:36.336Z,-1.80
2023-12-02T13:58:20.806Z,-1.74
2023-12-02T14:01:11.818Z,-1.70
2023-12-02T14:04:03.195Z,-1.70
2023-12-02T14:09:07.240Z,-1.74
2023-12-02T14:14:36.407Z,-1.80
2023-12-02T14:20:36.261Z,-1.80
2023-12-02T14:26:36.646Z,-1.90
2023-12-02T14:29:39.064Z,-1.90
2023-12-02T14:32:36.760Z,-1.90
2023-12-02T14:38:34.011Z,-1.98
2023-12-02T14:41:24.254Z,-2.00
2023-12-02T14:44:11.468Z,-2.00
2023-12-02T14:47:00.814Z,-2.00
2023-12-02T14:49:29.452Z,-2.00
2023-12-02T14:51:59.856Z,-2.00
2023-12-02T14:54:28.996Z,-2.00
2023-12-02T14:56:55.275Z,-2.00
2023-12-02T14:59:21.997Z,-2.00
2023-12-02T15:01:52.760Z,-2.00
2023-12-02T15:04:19.948Z,-2.00
2023-12-02T15:06:51.473Z,-1.96
2023-12-02T15:09:27.456Z,-1.90
2023-12-02T15:12:02.514Z,-1.90
2023-12-02T15:14:28.697Z,-1.90
2023-12-02T15:16:58.351Z,-1.90
2023-12-02T15:19:28.383Z,-1.90
2023-12-02T15:22:06.223Z,-1.90
2023-12-02T15:24:32.236Z,-1.90
2023-12-02T15:26:58.180Z,-1.90
2023-12-02T15:29:24.504Z,-1.90
2023-12-02T15:31:51.905Z,-1.90
2023-12-02T15:34:18.206Z,-1.90
2023-12-02T15:36:44.240Z,-1.90
2023-12-02T15:39:10.346Z,-1.80
2023-12-02T15:41:36.651Z,-1.80
2023-12-02T15:44:03.838Z,-1.80
2023-12-02T15:46:29.893Z,-1.80
2023-12-02T15:48:56.513Z,-1.78
2023-12-02T15:51:23.259Z,-1.72
2023-12-02T15:53:51.502Z,-1.70
2023-12-02T15:56:21.106Z,-1.70
2023-12-02T15:58:48.198Z,-1.70
2023-12-02T16:01:16.493Z,-1.70
2023-12-02T16:03:46.761Z,-1.68
2023-12-02T16:06:14.330Z,-1.70
2023-12-02T16:08:41.359Z,-1.70
2023-12-02T16:11:09.988Z,-1.70
2023-12-02T16:16:20.544Z,-1.70
2023-12-02T16:18:46.774Z,-1.78
2023-12-02T16:21:19.268Z,-1.80
2023-12-02T16:23:47.552Z,-1.80
2023-12-02T16:26:15.428Z,-1.80
2023-12-02T16:28:44.373Z,-1.80
2023-12-02T16:31:10.953Z,-1.82
2023-12-02T16:33:37.182Z,-1.90
2023-12-02T16:36:03.572Z,-1.86
2023-12-02T16:38:29.901Z,-1.86
2023-12-02T16:40:56.914Z,-1.80
2023-12-02T16:43:23.651Z,-1.80
2023-12-02T16:46:03.658Z,-1.80
2023-12-02T16:48:31.978Z,-1.80
2023-12-02T16:50:58.222Z,-1.80
2023-12-02T16:53:25.344Z,-1.80
2023-12-02T16:55:57.845Z,-1.80
2023-12-02T16:58:29.828Z,-1.80
2023-12-02T17:01:02.469Z,-1.80
2023-12-02T17:03:34.433Z,-1.80
2023-12-02T17:06:05.930Z,-1.70
2023-12-02T17:11:04.721Z,-1.70
2023-12-02T17:16:26.514Z,-1.60
2023-12-02T17:19:01.555Z,-1.60
2023-12-02T17:21:33.814Z,-1.60
2023-12-02T17:24:08.300Z,-1.54
2023-12-02T17:26:34.832Z,-1.50
2023-12-02T17:29:01.314Z,-1.50
2023-12-02T17:31:27.220Z,-1.50
2023-12-02T17:33:53.147Z,-1.40
2023-12-02T17:36:19.075Z,-1.44
2023-12-02T17:38:45.012Z,-1.50
2023-12-02T17:41:11.452Z,-1.44
2023-12-02T17:43:37.456Z,-1.48
2023-12-02T17:46:03.545Z,-1.50
2023-12-02T17:48:29.477Z,-1.50
2023-12-02T17:50:55.496Z,-1.50
2023-12-02T17:53:23.708Z,-1.50
2023-12-02T17:55:49.748Z,-1.50
2023-12-02T17:58:15.772Z,-1.54
2023-12-02T18:00:44.574Z,-1.54
2023-12-02T18:03:11.106Z,-1.60
2023-12-02T18:05:37.109Z,-1.60
2023-12-02T18:08:03.500Z,-1.60
2023-12-02T18:10:30.152Z,-1.60
2023-12-02T18:12:56.273Z,-1.60
2023-12-02T18:15:22.552Z,-1.50
2023-12-02T18:17:48.506Z,-1.50
2023-12-02T18:20:14.492Z,-1.50
2023-12-02T18:22:40.380Z,-1.46
2023-12-02T18:25:06.769Z,-1.40
2023-12-02T18:27:32.934Z,-1.40
2023-12-02T18:29:58.836Z,-1.40
2023-12-02T18:32:24.831Z,-1.40
2023-12-02T18:34:50.969Z,-1.40
2023-12-02T18:37:16.882Z,-1.40
2023-12-02T18:39:42.930Z,-1.38
2023-12-02T18:42:09.123Z,-1.40
2023-12-02T18:44:36.333Z,-1.40
2023-12-02T18:47:02.342Z,-1.40
2023-12-02T18:49:28.493Z,-1.50
2023-12-02T18:51:54.427Z,-1.50
2023-12-02T18:54:20.304Z,-1.50
2023-12-02T18:56:46.405Z,-1.50
2023-12-02T18:59:12.489Z,-1.50
2023-12-02T19:01:38.417Z,-1.50
2023-12-02T19:04:05.217Z,-1.50
2023-12-02T19:06:31.387Z,-1.50
2023-12-02T19:08:57.587Z,-1.50
2023-12-02T19:11:23.454Z,-1.50
2023-12-02T19:13:49.570Z,-1.44
2023-12-02T19:16:15.491Z,-1.44
2023-12-02T19:18:41.502Z,-1.46
2023-12-02T19:21:08.325Z,-1.40
2023-12-02T19:23:34.270Z,-1.40
2023-12-02T19:26:00.360Z,-1.40
2023-12-02T19:28:26.952Z,-1.40
2023-12-02T19:30:52.991Z,-1.40
2023-12-02T19:33:19.023Z,-1.40
2023-12-02T19:35:45.180Z,-1.40
2023-12-02T19:38:11.250Z,-1.40
2023-12-02T19:43:02.863Z,-1.30
2023-12-02T19:45:29.003Z,-1.30
2023-12-02T19:47:55.693Z,-1.30
2023-12-02T19:50:22.338Z,-1.30
2023-12-02T19:52:49.608Z,-1.30
2023-12-02T19:55:15.989Z,-1.30
2023-12-02T19:57:42.279Z,-1.30
2023-12-02T20:00:09.588Z,-1.30
2023-12-02T20:02:35.920Z,-1.30
2023-12-02T20:05:03.265Z,-1.30
2023-12-02T20:07:29.935Z,-1.30
2023-12-02T20:09:56.375Z,-1.30
2023-12-02T20:12:22.553Z,-1.30
2023-12-02T20:14:48.584Z,-1.28
2023-12-02T20:17:17.540Z,-1.28
2023-12-02T20:19:44.427Z,-1.30
2023-12-02T20:22:10.410Z,-1.30
2023-12-02T20:24:36.381Z,-1.30
2023-12-02T20:27:02.750Z,-1.30
2023-12-02T20:29:28.694Z,-1.30
2023-12-02T20:31:54.981Z,-1.30
2023-12-02T20:34:21.216Z,-1.28
2023-12-02T20:36:47.488Z,-1.30
2023-12-02T20:39:13.705Z,-1.28
2023-12-02T20:41:40.095Z,-1.26
2023-12-02T20:44:06.212Z,-1.30
2023-12-02T20:46:32.287Z,-1.22
2023-12-02T20:48:58.564Z,-1.20
2023-12-02T20:51:24.833Z,-1.20
2023-12-02T20:53:51.018Z,-1.20
2023-12-02T20:56:17.015Z,-1.20
2023-12-02T20:58:42.877Z,-1.26
2023-12-02T21:01:08.749Z,-1.28
2023-12-02T21:03:35.118Z,-1.24
2023-12-02T21:06:01.094Z,-1.30
2023-12-02T21:08:26.988Z,-1.30
2023-12-02T21:10:56.026Z,-1.30
2023-12-02T21:13:21.993Z,-1.30
2023-12-02T21:15:48.009Z,-1.30
2023-12-02T21:18:14.393Z,-1.30
2023-12-02T21:20:40.753Z,-1.30
2023-12-02T21:23:10.907Z,-1.30
2023-12-02T21:28:04.644Z,-1.30
2023-12-02T21:33:08.009Z,-1.30
2023-12-02T21:35:37.273Z,-1.30
2023-12-02T21:38:05.731Z,-1.30
2023-12-02T21:40:37.523Z,-1.30
2023-12-02T21:43:05.449Z,-1.30
2023-12-02T21:45:34.968Z,-1.30
2023-12-02T21:48:09.174Z,-1.30
2023-12-02T21:50:37.405Z,-1.30
2023-12-02T21:53:03.299Z,-1.30
2023-12-02T21:55:29.450Z,-1.30
2023-12-02T21:57:57.768Z,-1.30
2023-12-02T22:00:24.983Z,-1.30
2023-12-02T22:02:51.769Z,-1.30
2023-12-02T22:05:26.069Z,-1.30
2023-12-02T22:08:03.576Z,-1.30
2023-12-02T22:10:30.210Z,-1.30
2023-12-02T22:12:57.330Z,-1.30
2023-12-02T22:18:05.332Z,-1.30
2023-12-02T22:20:31.924Z,-1.30
2023-12-02T22:23:12.710Z,-1.30
2023-12-02T22:25:43.714Z,-1.30
2023-12-02T22:28:18.367Z,-1.30
2023-12-02T22:30:49.428Z,-1.30
2023-12-02T22:33:18.610Z,-1.30
2023-12-02T22:36:09.907Z,-1.30
2023-12-02T22:38:37.719Z,-1.30
2023-12-02T22:41:06.771Z,-1.30
2023-12-02T22:46:02.835Z,-1.32
2023-12-02T22:48:37.833Z,-1.30
2023-12-02T22:51:14.379Z,-1.32
2023-12-02T22:53:41.893Z,-1.30
2023-12-02T22:56:09.728Z,-1.30
2023-12-02T23:01:03.019Z,-1.30
2023-12-02T23:03:29.084Z,-1.30
2023-12-02T23:06:00.401Z,-1.30
2023-12-02T23:08:27.546Z,-1.32
2023-12-02T23:10:53.864Z,-1.34
2023-12-02T23:13:35.121Z,-1.30
2023-12-02T23:16:05.155Z,-1.30
2023-12-02T23:18:33.704Z,-1.30
2023-12-02T23:21:01.417Z,-1.30
2023-12-02T23:23:30.318Z,-1.28
2023-12-02T23:25:56.485Z,-1.30
2023-12-02T23:28:22.922Z,-1.30
2023-12-02T23:30:50.137Z,-1.30
2023-12-02T23:33:16.655Z,-1.20
2023-12-02T23:35:42.798Z,-1.20
2023-12-02T23:38:09.423Z,-1.20
2023-12-02T23:43:04.179Z,-1.20
2023-12-02T23:45:30.849Z,-1.20
2023-12-02T23:47:57.091Z,-1.20
2023-12-02T23:50:23.034Z,-1.20
2023-12-02T23:52:49.817Z,-1.20
2023-12-02T23:55:15.862Z,-1.20
2023-12-02T23:57:43.970Z,-1.20
